createdAt,value
2022-11-06T00:00:28.537Z,15.90
2022-11-06T00:02:58.909Z,14.77
2022-11-06T00:05:45.167Z,14.13
2022-11-06T00:08:12.558Z,12.52
2022-11-06T00:10:39.763Z,13.10
2022-11-06T00:13:06.641Z,12.18
2022-11-06T00:15:34.379Z,11.80
2022-11-06T00:18:01.235Z,11.15
2022-11-06T00:20:28.161Z,10.88
2022-11-06T00:22:55.001Z,10.10
2022-11-06T00:25:21.855Z,9.77
2022-11-06T00:27:48.724Z,9.68
2022-11-06T00:30:15.577Z,10.02
2022-11-06T00:32:42.396Z,9.68
2022-11-06T00:35:09.339Z,8.82
2022-11-06T00:37:36.192Z,8.32
2022-11-06T00:40:03.697Z,8.40
2022-11-06T00:42:30.756Z,8.00
2022-11-06T00:44:57.827Z,8.88
2022-11-06T00:47:24.889Z,8.90
2022-11-06T00:49:51.726Z,7.75
2022-11-06T00:52:18.547Z,7.68
2022-11-06T00:54:45.387Z,7.15
2022-11-06T00:57:12.249Z,7.57
2022-11-06T00:59:39.124Z,7.75
2022-11-06T01:02:06.107Z,7.47
2022-11-06T01:04:33.096Z,6.47
2022-11-06T01:06:59.894Z,7.72
2022-11-06T01:09:28.419Z,6.55
2022-11-06T01:12:14.234Z,6.78
2022-11-06T01:14:42.836Z,7.30
2022-11-06T01:17:09.820Z,6.57
2022-11-06T01:19:36.700Z,6.78
2022-11-06T01:22:03.750Z,6.90
2022-11-06T01:24:30.734Z,7.15
2022-11-06T01:27:25.068Z,6.90
2022-11-06T01:29:45.248Z,6.55
2022-11-06T01:32:12.088Z,6.45
2022-11-06T01:34:39.048Z,6.40
2022-11-06T01:37:06.382Z,6.35
2022-11-06T01:39:35.047Z,6.03
2022-11-06T01:42:01.870Z,5.70
2022-11-06T01:44:43.681Z,5.97
2022-11-06T01:47:28.226Z,5.88
2022-11-06T01:49:57.835Z,5.65
2022-11-06T01:52:25.936Z,5.95
2022-11-06T01:54:57.579Z,4.80
2022-11-06T01:57:24.721Z,5.93
2022-11-06T01:59:52.465Z,5.50
2022-11-06T02:02:19.718Z,5.80
2022-11-06T02:04:49.013Z,5.30
2022-11-06T02:07:17.349Z,6.10
2022-11-06T02:09:44.463Z,5.47
2022-11-06T02:13:08.757Z,5.05
2022-11-06T02:15:35.583Z,4.63
2022-11-06T02:18:44.067Z,5.00
2022-11-06T02:21:49.685Z,5.45
2022-11-06T02:24:40.728Z,4.80
2022-11-06T02:27:19.159Z,4.70
2022-11-06T02:30:07.406Z,4.57
2022-11-06T02:32:37.091Z,4.78
2022-11-06T02:35:26.270Z,4.57
2022-11-06T02:37:58.159Z,5.00
2022-11-06T02:40:29.223Z,4.53
2022-11-06T02:42:56.395Z,4.97
2022-11-06T02:45:24.131Z,4.30
2022-11-06T02:47:54.612Z,4.30
2022-11-06T02:50:25.534Z,4.22
2022-11-06T02:52:56.214Z,4.20
2022-11-06T02:55:28.929Z,4.60
2022-11-06T02:58:03.945Z,4.30
2022-11-06T03:00:32.321Z,5.70
2022-11-06T03:03:07.079Z,4.05
2022-11-06T03:05:37.808Z,4.10
2022-11-06T03:08:04.575Z,4.10
2022-11-06T03:10:40.730Z,4.05
2022-11-06T03:13:19.995Z,3.95
2022-11-06T03:16:01.178Z,3.95
2022-11-06T03:18:30.650Z,3.92
2022-11-06T03:21:09.700Z,3.65
2022-11-06T03:23:41.632Z,3.65
2022-11-06T03:26:16.233Z,3.90
2022-11-06T03:28:55.486Z,4.05
2022-11-06T03:31:33.571Z,3.78
2022-11-06T03:34:05.394Z,3.65
2022-11-06T03:36:39.870Z,3.47
2022-11-06T03:39:09.851Z,4.20
2022-11-06T03:41:57.993Z,3.58
2022-11-06T03:44:28.048Z,3.80
2022-11-06T03:47:03.612Z,3.20
2022-11-06T03:49:36.143Z,3.55
2022-11-06T03:52:11.101Z,3.53
2022-11-06T03:54:47.153Z,3.45
2022-11-06T03:57:29.342Z,3.33
2022-11-06T03:59:59.446Z,3.50
2022-11-06T04:02:29.026Z,3.17
2022-11-06T04:04:59.600Z,3.25
2022-11-06T04:07:30.568Z,3.80
2022-11-06T04:10:19.287Z,4.22
2022-11-06T04:15:39.473Z,3.45
2022-11-06T04:18:14.292Z,2.72
2022-11-06T04:21:09.386Z,3.17
2022-11-06T04:24:08.492Z,3.00
2022-11-06T04:26:42.998Z,3.42
2022-11-06T04:29:21.870Z,2.55
2022-11-06T04:32:05.122Z,3.00
2022-11-06T04:37:33.375Z,2.85
2022-11-06T04:40:14.048Z,3.17
2022-11-06T04:42:50.822Z,3.05
2022-11-06T04:45:25.000Z,3.15
2022-11-06T04:47:52.828Z,3.38
2022-11-06T04:50:21.491Z,3.45
2022-11-06T04:52:49.070Z,2.58
2022-11-06T04:55:16.069Z,2.80
2022-11-06T04:57:42.928Z,3.03
2022-11-06T05:00:16.855Z,2.55
2022-11-06T05:02:43.726Z,3.13
2022-11-06T05:05:10.553Z,2.50
2022-11-06T05:07:37.431Z,2.50
2022-11-06T05:10:04.933Z,3.10
2022-11-06T05:12:31.734Z,2.33
2022-11-06T05:14:58.633Z,2.40
2022-11-06T05:17:25.434Z,2.38
2022-11-06T05:19:52.372Z,2.30
2022-11-06T05:22:37.696Z,2.50
2022-11-06T05:25:04.794Z,2.55
2022-11-06T05:27:31.619Z,2.70
2022-11-06T05:29:58.462Z,2.58
2022-11-06T05:32:25.368Z,2.20
2022-11-06T05:34:52.177Z,1.92
2022-11-06T05:37:19.008Z,3.13
2022-11-06T05:39:45.841Z,2.60
2022-11-06T05:42:12.894Z,2.40
2022-11-06T05:44:39.762Z,2.28
2022-11-06T05:47:06.634Z,2.17
2022-11-06T05:49:33.447Z,2.55
2022-11-06T05:52:00.286Z,2.25
2022-11-06T05:54:27.110Z,2.00
2022-11-06T05:56:53.952Z,2.35
2022-11-06T05:59:20.752Z,1.80
2022-11-06T06:01:47.696Z,2.45
2022-11-06T06:04:14.669Z,2.28
2022-11-06T06:06:41.731Z,1.90
2022-11-06T06:09:08.617Z,2.13
2022-11-06T06:11:35.640Z,2.03
2022-11-06T06:14:02.542Z,2.35
2022-11-06T06:16:29.807Z,2.30
2022-11-06T06:18:56.772Z,2.00
2022-11-06T06:21:23.661Z,2.00
2022-11-06T06:23:50.492Z,2.10
2022-11-06T06:26:17.620Z,1.98
2022-11-06T06:28:44.582Z,1.95
2022-11-06T06:31:11.814Z,2.42
2022-11-06T06:33:38.673Z,2.75
2022-11-06T06:36:06.732Z,1.95
2022-11-06T06:38:33.843Z,1.65
2022-11-06T06:41:02.618Z,3.10
2022-11-06T06:43:29.430Z,1.73
2022-11-06T06:46:00.579Z,1.85
2022-11-06T06:48:27.973Z,1.90
2022-11-06T06:50:58.908Z,2.35
2022-11-06T06:53:25.876Z,1.92
2022-11-06T06:55:53.104Z,2.47
2022-11-06T06:58:20.709Z,2.28
2022-11-06T07:00:47.929Z,1.92
2022-11-06T07:03:14.875Z,2.17
2022-11-06T07:05:41.776Z,1.92
2022-11-06T07:08:08.623Z,2.08
2022-11-06T07:10:35.730Z,2.38
2022-11-06T07:13:05.885Z,1.83
2022-11-06T07:15:33.269Z,2.50
2022-11-06T07:18:04.685Z,1.70
2022-11-06T07:20:32.178Z,2.83
2022-11-06T07:22:58.996Z,1.50
2022-11-06T07:25:26.363Z,1.73
2022-11-06T07:27:53.152Z,1.40
2022-11-06T07:30:20.003Z,1.77
2022-11-06T07:32:46.820Z,1.73
2022-11-06T07:35:13.634Z,1.88
2022-11-06T07:37:40.470Z,1.58
2022-11-06T07:40:08.750Z,1.50
2022-11-06T07:42:40.692Z,1.60
2022-11-06T07:45:10.124Z,2.00
2022-11-06T07:47:37.003Z,1.63
2022-11-06T07:52:33.800Z,2.08
2022-11-06T07:55:00.697Z,1.60
2022-11-06T07:57:27.746Z,1.70
2022-11-06T07:59:54.590Z,1.98
2022-11-06T08:02:21.497Z,1.88
2022-11-06T08:04:48.410Z,1.42
2022-11-06T08:07:15.269Z,1.90
2022-11-06T08:09:42.091Z,2.47
2022-11-06T08:12:09.116Z,2.13
2022-11-06T08:14:41.069Z,1.50
2022-11-06T08:17:08.625Z,1.60
2022-11-06T08:19:35.502Z,1.67
2022-11-06T08:22:02.404Z,17.20
2022-11-06T08:24:29.422Z,39.90
2022-11-06T08:26:56.284Z,32.85
2022-11-06T08:29:23.082Z,29.00
2022-11-06T08:31:49.868Z,25.63
2022-11-06T08:34:16.727Z,22.23
2022-11-06T08:36:49.278Z,17.75
2022-11-06T08:39:16.808Z,16.55
2022-11-06T08:41:45.117Z,14.98
2022-11-06T08:44:11.993Z,13.45
2022-11-06T08:46:38.816Z,11.73
2022-11-06T08:49:05.618Z,11.23
2022-11-06T08:51:32.440Z,10.73
2022-11-06T08:53:59.619Z,9.80
2022-11-06T08:56:26.536Z,9.55
2022-11-06T08:58:55.686Z,9.77
2022-11-06T09:01:24.249Z,8.40
2022-11-06T09:03:51.263Z,8.70
2022-11-06T09:06:18.282Z,8.57
2022-11-06T09:08:45.159Z,7.85
2022-11-06T09:11:13.068Z,7.75
2022-11-06T09:13:39.957Z,7.30
2022-11-06T09:16:10.162Z,7.00
2022-11-06T09:18:41.305Z,32.72
2022-11-06T09:21:08.887Z,32.03
2022-11-06T09:23:36.066Z,26.92
2022-11-06T09:26:02.924Z,24.42
2022-11-06T09:28:29.760Z,21.88
2022-11-06T09:30:56.556Z,19.23
2022-11-06T09:33:23.417Z,16.00
2022-11-06T09:35:50.353Z,16.13
2022-11-06T09:38:17.314Z,39.85
2022-11-06T09:40:48.254Z,47.08
2022-11-06T09:43:43.231Z,40.33
2022-11-06T09:46:25.969Z,35.58
2022-11-06T09:49:00.265Z,31.35
2022-11-06T09:51:46.037Z,27.23
2022-11-06T09:54:26.502Z,23.98
2022-11-06T09:57:00.813Z,23.67
2022-11-06T09:59:28.015Z,22.00
2022-11-06T10:01:56.899Z,69.57
2022-11-06T10:04:45.936Z,87.82
2022-11-06T10:07:31.800Z,72.97
2022-11-06T10:10:00.374Z,62.80
2022-11-06T10:12:54.268Z,55.35
2022-11-06T10:15:30.271Z,50.85
2022-11-06T10:18:50.653Z,46.03
2022-11-06T10:21:20.347Z,40.53
2022-11-06T10:23:57.790Z,38.80
2022-11-06T10:26:37.202Z,37.20
2022-11-06T10:29:20.958Z,30.52
2022-11-06T10:32:15.607Z,28.38
2022-11-06T10:34:45.338Z,26.33
2022-11-06T10:39:41.249Z,26.08
2022-11-06T10:42:16.307Z,24.77
2022-11-06T10:44:55.086Z,24.95
2022-11-06T10:47:23.826Z,23.45
2022-11-06T10:49:59.238Z,23.40
2022-11-06T10:52:35.815Z,32.45
2022-11-06T10:55:47.664Z,44.88
2022-11-06T10:58:17.589Z,42.33
2022-11-06T11:00:44.763Z,35.33
2022-11-06T11:05:41.007Z,33.03
2022-11-06T11:08:30.713Z,30.07
2022-11-06T11:11:15.550Z,29.25
2022-11-06T11:13:50.903Z,26.77
2022-11-06T11:16:23.859Z,26.48
2022-11-06T11:18:51.647Z,25.10
2022-11-06T11:21:18.399Z,23.85
2022-11-06T11:23:46.920Z,23.85
2022-11-06T11:26:29.283Z,22.73
2022-11-06T11:29:01.289Z,22.08
2022-11-06T11:31:30.922Z,21.40
2022-11-06T11:34:03.914Z,20.05
2022-11-06T11:36:50.777Z,39.10
2022-11-06T11:39:18.896Z,45.63
2022-11-06T11:41:45.769Z,42.83
2022-11-06T11:44:17.276Z,41.63
2022-11-06T11:46:53.593Z,38.08
2022-11-06T11:49:30.907Z,35.17
2022-11-06T11:52:02.742Z,34.85
2022-11-06T11:54:32.663Z,28.55
2022-11-06T11:57:07.598Z,26.65
2022-11-06T11:59:56.435Z,25.30
2022-11-06T12:02:46.616Z,23.77
2022-11-06T12:05:43.148Z,23.23
2022-11-06T12:08:23.751Z,21.33
2022-11-06T12:10:50.785Z,21.13
2022-11-06T12:13:22.615Z,19.88
2022-11-06T12:16:01.195Z,18.77
2022-11-06T12:18:31.919Z,18.35
2022-11-06T12:21:08.999Z,17.67
2022-11-06T12:23:57.281Z,17.35
2022-11-06T12:26:48.803Z,16.17
2022-11-06T12:29:28.230Z,15.45
2022-11-06T12:32:06.697Z,15.05
2022-11-06T12:34:34.485Z,15.15
2022-11-06T12:37:17.374Z,14.60
2022-11-06T12:39:47.299Z,14.32
2022-11-06T12:42:15.450Z,14.00
2022-11-06T12:44:42.293Z,19.85
2022-11-06T12:47:26.309Z,17.05
2022-11-06T12:50:11.615Z,18.50
2022-11-06T12:52:50.284Z,15.77
2022-11-06T12:55:29.311Z,22.50
2022-11-06T12:58:06.135Z,17.67
2022-11-06T13:00:59.786Z,27.30
2022-11-06T13:03:45.244Z,25.83
2022-11-06T13:06:37.209Z,27.85
2022-11-06T13:09:18.870Z,32.78
2022-11-06T13:12:06.878Z,30.30
2022-11-06T13:14:47.068Z,23.83
2022-11-06T13:17:35.501Z,31.08
2022-11-06T13:20:21.300Z,24.15
2022-11-06T13:23:08.231Z,28.33
2022-11-06T13:26:03.645Z,17.77
2022-11-06T13:29:04.050Z,22.33
2022-11-06T13:31:41.586Z,27.48
2022-11-06T13:34:30.686Z,22.73
2022-11-06T13:36:58.038Z,16.45
2022-11-06T13:42:26.223Z,47.65
2022-11-06T13:44:53.891Z,48.25
2022-11-06T13:47:30.740Z,35.08
2022-11-06T13:50:47.154Z,45.30
2022-11-06T13:53:34.118Z,37.47
2022-11-06T13:56:07.196Z,34.80
2022-11-06T13:58:55.908Z,31.67
2022-11-06T14:01:28.979Z,32.70
2022-11-06T14:04:12.394Z,33.60
2022-11-06T14:06:40.066Z,30.58
2022-11-06T14:09:10.925Z,26.05
2022-11-06T14:11:40.374Z,24.88
2022-11-06T14:14:12.537Z,27.27
2022-11-06T14:16:41.165Z,21.38
2022-11-06T14:19:21.410Z,25.50
2022-11-06T14:21:58.433Z,20.15
2022-11-06T14:24:43.495Z,23.58
2022-11-06T14:27:13.405Z,20.58
2022-11-06T14:29:40.171Z,22.02
2022-11-06T14:32:21.510Z,18.88
2022-11-06T14:34:48.671Z,24.90
2022-11-06T14:37:18.242Z,21.63
2022-11-06T14:39:57.004Z,19.30
2022-11-06T14:42:27.020Z,16.75
2022-11-06T14:44:57.707Z,16.55
2022-11-06T14:47:50.725Z,17.67
2022-11-06T14:50:32.681Z,13.75
2022-11-06T14:53:33.077Z,15.98
2022-11-06T14:56:05.730Z,14.98
2022-11-06T14:59:00.651Z,14.90
2022-11-06T15:01:30.497Z,13.27
2022-11-06T15:03:57.372Z,39.63
2022-11-06T15:06:32.817Z,48.08
2022-11-06T15:09:10.932Z,49.25
2022-11-06T15:11:47.708Z,43.00
2022-11-06T15:14:14.932Z,38.90
2022-11-06T15:16:51.926Z,37.55
2022-11-06T15:19:44.397Z,36.08
2022-11-06T15:22:38.422Z,30.75
2022-11-06T15:25:20.948Z,31.63
2022-11-06T15:28:05.081Z,27.65
2022-11-06T15:30:40.564Z,28.90
2022-11-06T15:33:12.698Z,27.45
2022-11-06T15:38:14.927Z,23.80
2022-11-06T15:40:42.993Z,23.88
2022-11-06T15:43:25.898Z,27.83
2022-11-06T15:46:19.311Z,27.20
2022-11-06T15:48:46.350Z,32.03
2022-11-06T15:51:25.257Z,27.20
2022-11-06T15:53:52.646Z,21.70
2022-11-06T15:56:24.172Z,23.83
2022-11-06T15:59:14.749Z,25.08
2022-11-06T16:01:42.088Z,20.92
2022-11-06T16:04:17.492Z,23.73
2022-11-06T16:06:45.065Z,22.83
2022-11-06T16:09:19.416Z,22.15
2022-11-06T16:11:48.138Z,23.63
2022-11-06T16:14:15.622Z,21.20
2022-11-06T16:16:45.581Z,20.13
2022-11-06T16:19:34.328Z,18.48
2022-11-06T16:22:07.615Z,24.15
2022-11-06T16:24:55.677Z,19.80
2022-11-06T16:27:23.668Z,20.83
2022-11-06T16:29:58.520Z,18.52
2022-11-06T16:32:27.860Z,15.10
2022-11-06T16:34:55.373Z,18.45
2022-11-06T16:37:36.152Z,20.92
2022-11-06T16:40:03.158Z,13.18
2022-11-06T16:42:38.964Z,18.35
2022-11-06T16:45:08.582Z,15.43
2022-11-06T16:47:36.016Z,14.23
2022-11-06T16:50:05.990Z,15.15
2022-11-06T16:52:39.026Z,15.82
2022-11-06T16:55:07.137Z,17.55
2022-11-06T16:57:46.184Z,16.13
2022-11-06T17:00:22.006Z,15.10
2022-11-06T17:02:48.992Z,12.50
2022-11-06T17:05:18.433Z,11.20
2022-11-06T17:07:46.207Z,10.20
2022-11-06T17:10:34.981Z,12.40
2022-11-06T17:13:29.086Z,13.60
2022-11-06T17:16:04.347Z,10.60
2022-11-06T17:18:33.623Z,12.70
2022-11-06T17:21:11.466Z,9.90
2022-11-06T17:23:38.528Z,10.93
2022-11-06T17:26:25.757Z,11.25
2022-11-06T17:28:52.643Z,11.38
2022-11-06T17:31:20.782Z,12.23
2022-11-06T17:33:48.113Z,19.92
2022-11-06T17:36:25.312Z,16.17
2022-11-06T17:38:53.339Z,16.08
2022-11-06T17:41:32.729Z,13.98
2022-11-06T17:44:08.261Z,13.35
2022-11-06T17:46:37.348Z,13.98
2022-11-06T17:49:04.564Z,11.95
2022-11-06T17:51:50.156Z,14.65
2022-11-06T17:54:18.626Z,10.88
2022-11-06T17:56:45.507Z,9.65
2022-11-06T17:59:13.379Z,13.52
2022-11-06T18:01:40.843Z,19.67
2022-11-06T18:04:07.800Z,18.33
2022-11-06T18:06:34.779Z,39.50
2022-11-06T18:09:06.026Z,36.35
2022-11-06T18:11:33.623Z,80.55
2022-11-06T18:14:00.513Z,65.40
2022-11-06T18:16:29.925Z,74.50
2022-11-06T18:18:57.159Z,65.80
2022-11-06T18:21:24.310Z,59.65
2022-11-06T18:23:51.497Z,53.55
2022-11-06T18:26:21.297Z,55.10
2022-11-06T18:31:15.409Z,59.70
2022-11-06T18:33:42.403Z,55.75
2022-11-06T18:36:10.996Z,61.28
2022-11-06T18:38:38.302Z,54.40
2022-11-06T18:41:09.084Z,47.50
2022-11-06T18:43:36.287Z,48.33
2022-11-06T18:46:11.827Z,46.80
2022-11-06T18:48:39.345Z,39.35
2022-11-06T18:51:07.008Z,36.38
2022-11-06T18:53:33.953Z,34.47
2022-11-06T18:56:00.972Z,39.50
2022-11-06T18:58:28.020Z,32.92
2022-11-06T19:01:00.530Z,35.60
2022-11-06T19:03:28.613Z,37.45
2022-11-06T19:05:55.476Z,32.30
2022-11-06T19:08:22.327Z,32.30
2022-11-06T19:10:49.205Z,33.38
2022-11-06T19:13:17.383Z,33.40
2022-11-06T19:15:45.099Z,26.70
2022-11-06T19:18:12.851Z,27.73
2022-11-06T19:20:41.256Z,25.95
2022-11-06T19:23:08.938Z,23.80
2022-11-06T19:25:35.781Z,25.50
2022-11-06T19:28:03.098Z,23.92
2022-11-06T19:30:29.927Z,25.98
2022-11-06T19:32:56.813Z,19.45
2022-11-06T19:35:23.689Z,19.67
2022-11-06T19:37:50.769Z,19.92
2022-11-06T19:40:17.632Z,20.98
2022-11-06T19:42:44.452Z,19.85
2022-11-06T19:45:11.327Z,18.48
2022-11-06T19:47:39.312Z,19.63
2022-11-06T19:50:06.530Z,20.23
2022-11-06T19:52:42.552Z,21.20
2022-11-06T19:55:26.057Z,17.40
2022-11-06T19:57:54.963Z,16.23
2022-11-06T20:00:21.846Z,17.27
2022-11-06T20:02:50.027Z,18.20
2022-11-06T20:05:17.030Z,14.60
2022-11-06T20:07:43.886Z,15.20
2022-11-06T20:10:11.083Z,12.88
2022-11-06T20:12:38.068Z,13.82
2022-11-06T20:15:05.558Z,14.90
2022-11-06T20:17:42.794Z,13.98
2022-11-06T20:20:10.496Z,16.98
2022-11-06T20:22:37.359Z,12.95
2022-11-06T20:25:04.468Z,15.30
2022-11-06T20:27:31.479Z,13.02
2022-11-06T20:29:58.350Z,13.15
2022-11-06T20:32:33.826Z,13.95
2022-11-06T20:35:01.482Z,10.38
2022-11-06T20:37:28.698Z,12.40
2022-11-06T20:39:59.034Z,12.10
2022-11-06T20:42:26.289Z,12.20
2022-11-06T20:44:53.107Z,13.07
2022-11-06T20:47:20.027Z,11.95
2022-11-06T20:49:46.894Z,11.63
2022-11-06T20:52:14.994Z,11.27
2022-11-06T20:54:46.666Z,11.98
2022-11-06T20:57:15.760Z,12.13
2022-11-06T20:59:42.893Z,10.05
2022-11-06T21:02:13.024Z,11.02
2022-11-06T21:04:43.358Z,9.38
2022-11-06T21:07:10.266Z,10.93
2022-11-06T21:09:37.617Z,11.45
2022-11-06T21:12:04.957Z,11.57
2022-11-06T21:14:32.838Z,10.95
2022-11-06T21:17:06.174Z,9.13
2022-11-06T21:19:36.623Z,11.85
2022-11-06T21:22:03.676Z,20.20
2022-11-06T21:24:35.707Z,18.00
2022-11-06T21:27:02.541Z,16.33
2022-11-06T21:29:29.509Z,14.48
2022-11-06T21:32:02.231Z,13.20
2022-11-06T21:34:31.868Z,13.30
2022-11-06T21:37:08.008Z,11.93
2022-11-06T21:39:43.775Z,12.38
2022-11-06T21:42:13.958Z,10.68
2022-11-06T21:44:40.893Z,10.32
2022-11-06T21:47:07.730Z,10.13
2022-11-06T21:49:34.530Z,9.80
2022-11-06T21:52:25.084Z,10.77
2022-11-06T21:55:16.818Z,8.40
2022-11-06T21:57:43.678Z,8.23
2022-11-06T22:00:14.261Z,11.00
2022-11-06T22:02:41.628Z,10.50
2022-11-06T22:05:09.050Z,9.35
2022-11-06T22:07:35.890Z,8.30
2022-11-06T22:10:02.840Z,7.82
2022-11-06T22:12:29.673Z,8.48
2022-11-06T22:14:56.516Z,7.25
2022-11-06T22:17:23.375Z,8.10
2022-11-06T22:19:50.231Z,9.75
2022-11-06T22:22:17.084Z,8.90
2022-11-06T22:24:44.035Z,8.48
2022-11-06T22:27:10.855Z,7.72
2022-11-06T22:29:37.664Z,6.72
2022-11-06T22:32:04.752Z,6.35
2022-11-06T22:34:31.580Z,7.43
2022-11-06T22:36:58.387Z,7.95
2022-11-06T22:39:25.194Z,24.10
2022-11-06T22:41:52.814Z,27.77
2022-11-06T22:44:19.795Z,23.88
2022-11-06T22:46:46.978Z,21.25
2022-11-06T22:49:13.965Z,19.33
2022-11-06T22:51:40.795Z,17.67
2022-11-06T22:54:07.652Z,16.88
2022-11-06T22:56:34.554Z,15.85
2022-11-06T22:59:04.024Z,14.85
2022-11-06T23:01:34.929Z,12.80
2022-11-06T23:04:08.393Z,12.48
2022-11-06T23:06:35.472Z,12.18
2022-11-06T23:09:02.521Z,11.52
2022-11-06T23:11:29.811Z,10.63
2022-11-06T23:13:57.537Z,9.88
2022-11-06T23:16:51.961Z,9.30
2022-11-06T23:19:20.685Z,9.00
2022-11-06T23:21:47.839Z,7.82
2022-11-06T23:24:14.819Z,8.98
2022-11-06T23:26:43.717Z,7.25
2022-11-06T23:29:10.781Z,7.40
2022-11-06T23:31:37.655Z,8.60
2022-11-06T23:34:04.812Z,6.88
2022-11-06T23:36:31.709Z,8.70
2022-11-06T23:38:58.572Z,6.95
2022-11-06T23:41:43.609Z,8.18
2022-11-06T23:44:30.410Z,6.78
2022-11-06T23:46:57.987Z,7.00
2022-11-06T23:49:24.954Z,6.50
2022-11-06T23:51:51.790Z,6.22
2022-11-06T23:54:18.606Z,6.78
2022-11-06T23:56:45.397Z,6.90
2022-11-06T23:59:12.829Z,6.43
